Time;durP1;ratioP1;P1;durP2;ratioP2;P2;SDS_P1;SDS_P2;PMS_P1;PMS_P2;Temp;Humidity;BMP_temperature;BMP_pressure;BME280_temperature;BME280_humidity;BME280_pressure;Samples;Min_cycle;Max_cycle;Signal;HPM_P1;HPM_P2
2023/01/27 00:00:10;;;;;;;;;;;0.70;99.90;1.40;99725.00;;;;346007;28;82339;-86
2023/01/27 00:00:23;;;;;;;;;;;0.80;99.90;1.40;99734.00;;;;342658;28;91715;-85
2023/01/27 00:00:34;;;;;;;;;;;0.80;99.90;1.40;99723.00;;;;346132;28;83191;-85
2023/01/27 00:00:50;;;;;;;;;;;0.80;99.90;1.40;99727.00;;;;346979;28;89132;-85
2023/01/27 00:01:02;;;;;;;;;;;0.80;99.90;1.40;99724.00;;;;345943;28;82378;-85
2023/01/27 00:01:15;;;;;;;;;;;0.80;99.90;1.40;99731.00;;;;342874;28;88918;-85
2023/01/27 00:01:27;;;;;;;;;;;0.80;99.90;1.40;99722.00;;;;343245;28;83443;-85
2023/01/27 00:01:39;;;;;;;;;;;0.80;99.90;1.40;99723.00;;;;345586;28;88651;-86
2023/01/27 00:01:50;;;;;;;;;;;0.80;99.90;1.40;99732.00;;;;344730;28;83301;-85
2023/01/27 00:02:02;;;;;;;;;;;0.80;99.90;1.40;99725.00;;;;342694;28;90294;-85
2023/01/27 00:02:14;;;;;;;;;;;0.80;99.90;1.40;99739.00;;;;344407;28;83540;-85
2023/01/27 00:02:26;;;;;;;;;;;0.80;99.90;1.40;99733.00;;;;344123;28;89560;-85
2023/01/27 00:02:38;;;;;;;;;;;0.80;99.90;1.40;99729.00;;;;344700;28;83495;-85
2023/01/27 00:02:50;;;;;;;;;;;0.70;99.90;1.40;99725.00;;;;342814;28;91431;-85
2023/01/27 00:03:02;;;;;;;;;;;0.80;99.90;1.40;99732.00;;;;344462;28;83487;-85
2023/01/27 00:03:14;;;;;;;;;;;0.80;99.90;1.40;99731.00;;;;345500;28;92726;-85
2023/01/27 00:03:26;;;;;;;;;;;0.70;99.90;1.40;99731.00;;;;346043;28;82509;-85
2023/01/27 00:03:37;;;;;;;;;;;0.80;99.90;1.40;99733.00;;;;344171;28;89157;-85
2023/01/27 00:03:49;;;;;;;;;;;0.80;99.90;1.40;99728.00;;;;347422;28;83448;-85
2023/01/27 00:04:02;;;;;;;;;;;0.70;99.90;1.40;99737.00;;;;346904;28;92313;-86
2023/01/27 00:04:14;;;;;;;;;;;0.80;99.90;1.40;99732.00;;;;346074;28;83429;-85
2023/01/27 00:04:25;;;;;;;;;;;0.80;99.90;1.40;99728.00;;;;345586;28;90427;-85
2023/01/27 00:04:37;;;;;;;;;;;0.80;99.90;1.40;99730.00;;;;346097;28;83147;-86
2023/01/27 00:04:49;;;;;;;;;;;0.70;99.90;1.40;99732.00;;;;346719;28;89323;-85
2023/01/27 00:05:00;;;;;;;;;;;0.70;99.90;1.40;99735.00;;;;347295;28;83400;-85
2023/01/27 00:05:13;;;;;;;;;;;0.70;99.90;1.40;99732.00;;;;348378;27;88938;-85
2023/01/27 00:05:25;;;;;;;;;;;0.70;99.90;1.50;99729.00;;;;347438;28;83246;-85
2023/01/27 00:05:37;;;;;;;;;;;0.80;99.90;1.50;99726.00;;;;346975;28;89733;-85
2023/01/27 00:05:48;;;;;;;;;;;0.80;99.90;1.40;99726.00;;;;346039;28;83263;-85
2023/01/27 00:06:03;;;;;;;;;;;0.80;99.90;1.30;99730.00;;;;345677;28;89047;-86
2023/01/27 00:06:15;;;;;;;;;;;0.70;99.90;1.30;99736.00;;;;347507;28;83289;-86
2023/01/27 00:06:27;;;;;;;;;;;0.70;99.90;1.40;99733.00;;;;346836;28;90443;-85
2023/01/27 00:06:38;;;;;;;;;;;0.70;99.90;1.40;99733.00;;;;348873;27;83251;-86
2023/01/27 00:06:50;;;;;;;;;;;0.70;99.90;1.40;99734.00;;;;349823;27;89188;-85
2023/01/27 00:07:02;;;;;;;;;;;0.70;99.90;1.40;99726.00;;;;346044;28;83214;-85
2023/01/27 00:07:14;;;;;;;;;;;0.70;99.90;1.40;99728.00;;;;342806;28;91085;-85
2023/01/27 00:07:26;;;;;;;;;;;0.70;99.90;1.40;99733.00;;;;347387;28;82612;-86
2023/01/27 00:07:37;;;;;;;;;;;0.70;99.90;1.40;99720.00;;;;346892;28;90518;-85
2023/01/27 00:07:49;;;;;;;;;;;0.70;99.90;1.40;99722.00;;;;342907;28;83465;-84
2023/01/27 00:08:01;;;;;;;;;;;0.70;99.90;1.40;99732.00;;;;344014;28;90982;-85
2023/01/27 00:08:13;;;;;;;;;;;0.80;99.90;1.40;99728.00;;;;345915;28;83439;-85
2023/01/27 00:08:24;;;;;;;;;;;0.80;99.90;1.40;99725.00;;;;346742;27;93044;-85
2023/01/27 00:08:36;;;;;;;;;;;0.70;99.90;1.40;99735.00;;;;346043;28;83298;-86
2023/01/27 00:08:48;;;;;;;;;;;0.80;99.90;1.40;99730.00;;;;345643;28;89088;-85
2023/01/27 00:09:00;;;;;;;;;;;0.70;99.90;1.40;99728.00;;;;345973;28;83136;-85
2023/01/27 00:09:12;;;;;;;;;;;0.80;99.90;1.40;99724.00;;;;342935;28;88692;-85
2023/01/27 00:09:23;;;;;;;;;;;0.70;99.90;1.40;99725.00;;;;343181;28;83363;-85
2023/01/27 00:09:35;;;;;;;;;;;0.70;99.90;1.40;99727.00;;;;344267;28;89185;-85
2023/01/27 00:09:47;;;;;;;;;;;0.80;99.90;1.50;99727.00;;;;347289;27;83283;-86
2023/01/27 00:09:59;;;;;;;;;;;0.80;99.90;1.40;99734.00;;;;347054;28;87783;-85
2023/01/27 00:10:13;;;;;;;;;;;0.80;99.90;1.50;99721.00;;;;346079;28;83284;-85
2023/01/27 00:10:25;;;;;;;;;;;0.80;99.90;1.50;99726.00;;;;342763;28;91201;-85
2023/01/27 00:10:37;;;;;;;;;;;0.80;99.90;1.40;99722.00;;;;346051;28;83301;-85
2023/01/27 00:13:25;;;;;;;;;;;0.70;99.90;1.40;99722.00;;;;345497;28;90041;-86
2023/01/27 00:13:27;;;;;;;;;;;0.80;99.90;1.50;99718.00;;;;344574;28;83249;-85
2023/01/27 00:13:39;;;;;;;;;;;0.80;99.90;1.40;99711.00;;;;346911;28;91413;-86
2023/01/27 00:13:51;;;;;;;;;;;0.80;99.90;1.40;99718.00;;;;344624;28;83501;-85
2023/01/27 00:14:03;;;;;;;;;;;0.80;99.90;1.40;99715.00;;;;346781;28;93202;-85
2023/01/27 00:14:14;;;;;;;;;;;0.80;99.90;1.40;99710.00;;;;347483;28;82367;-86
2023/01/27 00:14:26;;;;;;;;;;;0.80;99.90;1.40;99717.00;;;;347011;28;88316;-85
2023/01/27 00:14:38;;;;;;;;;;;0.80;99.90;1.40;99708.00;;;;347380;28;83196;-85
2023/01/27 00:14:50;;;;;;;;;;;0.80;99.90;1.40;99716.00;;;;346996;28;89152;-85
2023/01/27 00:15:03;;;;;;;;;;;0.80;99.90;1.30;99721.00;;;;344472;28;83219;-85
2023/01/27 00:15:15;;;;;;;;;;;0.80;99.90;1.40;99717.00;;;;344063;28;88956;-85
2023/01/27 00:15:27;;;;;;;;;;;0.80;99.90;1.40;99725.00;;;;343322;28;83515;-85
2023/01/27 00:15:38;;;;;;;;;;;0.70;99.90;1.40;99710.00;;;;344198;28;89101;-86
2023/01/27 00:15:50;;;;;;;;;;;0.70;99.90;1.30;99719.00;;;;348853;27;83451;-85
2023/01/27 00:16:02;;;;;;;;;;;0.70;99.90;1.40;99712.00;;;;344066;28;91694;-86
2023/01/27 00:16:14;;;;;;;;;;;0.70;99.90;1.30;99722.00;;;;344695;28;83138;-85
2023/01/27 00:16:26;;;;;;;;;;;0.70;99.90;1.40;99732.00;;;;346849;28;89310;-85
2023/01/27 00:16:37;;;;;;;;;;;0.80;99.90;1.40;99722.00;;;;346078;28;83427;-85
2023/01/27 00:16:49;;;;;;;;;;;0.70;99.90;1.40;99711.00;;;;342892;28;89283;-85
2023/01/27 00:17:01;;;;;;;;;;;0.70;99.90;1.40;99706.00;;;;345964;28;83522;-85
2023/01/27 00:17:13;;;;;;;;;;;0.70;99.90;1.40;99710.00;;;;347022;28;88445;-85
2023/01/27 00:17:24;;;;;;;;;;;0.70;99.90;1.40;99713.00;;;;347291;28;83467;-85
2023/01/27 00:17:36;;;;;;;;;;;0.70;99.90;1.40;99714.00;;;;344198;28;91569;-85
2023/01/27 00:17:48;;;;;;;;;;;0.70;99.90;1.40;99721.00;;;;344584;28;83612;-86
2023/01/27 00:18:00;;;;;;;;;;;0.70;99.90;1.40;99715.00;;;;346814;28;93362;-85
2023/01/27 00:18:12;;;;;;;;;;;0.70;99.90;1.40;99717.00;;;;348286;28;83283;-84
2023/01/27 00:18:25;;;;;;;;;;;0.70;99.90;1.40;99722.00;;;;344861;28;89640;-85
2023/01/27 00:18:37;;;;;;;;;;;0.80;99.90;1.40;99714.00;;;;345265;28;82553;-85
2023/01/27 00:19:03;;;;;;;;;;;0.70;99.90;1.40;99719.00;;;;343074;28;90166;-85
2023/01/27 00:19:18;;;;;;;;;;;0.70;99.90;1.30;99722.00;;;;347983;28;83256;-85
2023/01/27 00:19:30;;;;;;;;;;;0.70;99.90;1.30;99716.00;;;;347201;27;91346;-85
2023/01/27 00:19:43;;;;;;;;;;;0.70;99.90;1.30;99720.00;;;;344498;28;83606;-85
2023/01/27 00:19:55;;;;;;;;;;;0.70;99.90;1.30;99716.00;;;;342776;28;88774;-85
2023/01/27 00:20:07;;;;;;;;;;;0.70;99.90;1.30;99721.00;;;;345980;28;82392;-85
2023/01/27 00:24:35;;;;;;;;;;;0.60;99.90;1.30;99705.00;;;;345385;28;89351;-85
2023/01/27 00:24:47;;;;;;;;;;;0.60;99.90;1.40;99714.00;;;;345843;28;83355;-85
2023/01/27 00:24:59;;;;;;;;;;;0.60;99.90;1.30;99717.00;;;;345173;28;89631;-86
2023/01/27 00:25:11;;;;;;;;;;;0.60;99.90;1.30;99713.00;;;;346004;28;83625;-85
2023/01/27 00:25:22;;;;;;;;;;;0.60;99.90;1.30;99716.00;;;;344098;28;91919;-85
2023/01/27 00:25:34;;;;;;;;;;;0.60;99.90;1.30;99718.00;;;;344604;28;83168;-85
2023/01/27 00:25:49;;;;;;;;;;;0.60;99.90;1.30;99712.00;;;;342702;28;91320;-85
2023/01/27 00:26:05;;;;;;;;;;;0.70;99.90;1.30;99714.00;;;;344568;28;83347;-85
2023/01/27 00:26:17;;;;;;;;;;;0.70;99.90;1.30;99699.00;;;;345531;28;88814;-85
2023/01/27 00:26:29;;;;;;;;;;;0.60;99.90;1.30;99723.00;;;;345889;28;83388;-85
2023/01/27 00:26:40;;;;;;;;;;;0.60;99.90;1.30;99717.00;;;;348248;27;91093;-85
2023/01/27 00:26:52;;;;;;;;;;;0.60;99.90;1.30;99694.00;;;;344616;28;83178;-85
2023/01/27 00:27:07;;;;;;;;;;;0.60;99.90;1.30;99702.00;;;;343938;28;92442;-85
2023/01/27 00:27:19;;;;;;;;;;;0.60;99.90;1.30;99712.00;;;;347414;28;83289;-85
2023/01/27 00:27:31;;;;;;;;;;;0.60;99.90;1.30;99703.00;;;;346981;28;88471;-85
2023/01/27 00:27:43;;;;;;;;;;;0.60;99.90;1.30;99712.00;;;;345860;28;83435;-85
2023/01/27 00:27:54;;;;;;;;;;;0.70;99.90;1.30;99711.00;;;;345537;28;90948;-85
2023/01/27 00:28:07;;;;;;;;;;;0.70;99.90;1.30;99702.00;;;;345880;28;83441;-85
2023/01/27 00:28:21;;;;;;;;;;;0.60;99.90;1.40;99711.00;;;;344130;28;89168;-85
2023/01/27 00:28:37;;;;;;;;;;;0.60;99.90;1.40;99703.00;;;;344279;28;83679;-85
2023/01/27 00:28:49;;;;;;;;;;;0.60;99.90;1.40;99710.00;;;;345498;28;88637;-85
2023/01/27 00:29:01;;;;;;;;;;;0.60;99.90;1.40;99714.00;;;;345717;28;83562;-85
2023/01/27 00:29:13;;;;;;;;;;;0.60;99.90;1.40;99707.00;;;;345432;28;92877;-85
2023/01/27 00:29:24;;;;;;;;;;;0.70;99.90;1.40;99714.00;;;;344639;28;83306;-85
2023/01/27 00:29:37;;;;;;;;;;;0.60;99.90;1.40;99702.00;;;;344167;28;89008;-85
2023/01/27 00:29:51;;;;;;;;;;;0.70;99.90;1.40;99703.00;;;;345959;28;83396;-85
2023/01/27 00:30:05;;;;;;;;;;;0.70;99.90;1.40;99712.00;;;;346890;28;88935;-86
2023/01/27 00:30:17;;;;;;;;;;;0.70;99.90;1.30;99707.00;;;;350183;27;82381;-85
2023/01/27 00:30:28;;;;;;;;;;;0.70;99.90;1.40;99702.00;;;;345438;28;91779;-85
2023/01/27 00:30:40;;;;;;;;;;;0.70;99.90;1.40;99715.00;;;;345966;28;83427;-85
2023/01/27 00:30:52;;;;;;;;;;;0.70;99.90;1.40;99710.00;;;;345382;28;89534;-85
2023/01/27 00:31:04;;;;;;;;;;;0.70;99.90;1.40;99708.00;;;;345659;28;83543;-86
2023/01/27 00:33:24;;;;;;;;;;;0.70;99.90;1.40;99703.00;;;;344944;28;92371;-85
2023/01/27 00:33:36;;;;;;;;;;;0.70;99.90;1.30;99704.00;;;;343162;28;82466;-85
2023/01/27 00:33:48;;;;;;;;;;;0.70;99.90;1.40;99706.00;;;;346922;28;88858;-85
2023/01/27 00:34:07;;;;;;;;;;;0.70;99.90;1.30;99711.00;;;;346046;28;82389;-85
2023/01/27 00:34:20;;;;;;;;;;;0.70;99.90;1.40;99692.00;;;;346891;28;89608;-86
2023/01/27 00:34:32;;;;;;;;;;;0.70;99.90;1.30;99699.00;;;;344484;28;83442;-85
2023/01/27 00:34:43;;;;;;;;;;;0.70;99.90;1.30;99704.00;;;;345431;28;93188;-85
2023/01/27 00:34:55;;;;;;;;;;;0.70;99.90;1.30;99696.00;;;;348677;27;82588;-85
2023/01/27 00:35:07;;;;;;;;;;;0.70;99.90;1.30;99708.00;;;;348146;27;92211;-86
2023/01/27 00:35:19;;;;;;;;;;;0.70;99.90;1.30;99698.00;;;;343223;28;83470;-85
2023/01/27 00:35:31;;;;;;;;;;;0.70;99.90;1.30;99702.00;;;;345489;28;92130;-85
2023/01/27 00:35:42;;;;;;;;;;;0.70;99.90;1.40;99709.00;;;;344531;28;83446;-85
2023/01/27 00:36:00;;;;;;;;;;;0.70;99.90;1.30;99706.00;;;;344208;28;89242;-85
2023/01/27 00:36:12;;;;;;;;;;;0.70;99.90;1.30;99705.00;;;;344692;28;82421;-85
2023/01/27 00:36:24;;;;;;;;;;;0.70;99.90;1.30;99706.00;;;;344012;28;92504;-85
2023/01/27 00:36:36;;;;;;;;;;;0.70;99.90;1.20;99704.00;;;;348785;27;82554;-85
2023/01/27 00:36:48;;;;;;;;;;;0.70;99.90;1.30;99703.00;;;;343874;28;90075;-85
2023/01/27 00:37:00;;;;;;;;;;;0.70;99.90;1.30;99709.00;;;;345928;28;83321;-85
2023/01/27 00:37:11;;;;;;;;;;;0.60;99.90;1.30;99708.00;;;;346965;28;89841;-85
2023/01/27 00:37:23;;;;;;;;;;;0.60;99.90;1.30;99713.00;;;;345904;28;82413;-85
2023/01/27 00:37:35;;;;;;;;;;;0.60;99.90;1.30;99699.00;;;;345501;28;90417;-85
2023/01/27 00:37:47;;;;;;;;;;;0.60;99.90;1.30;99697.00;;;;348783;27;83593;-85
2023/01/27 00:37:58;;;;;;;;;;;0.60;99.90;1.20;99697.00;;;;342822;28;89837;-85
2023/01/27 00:38:10;;;;;;;;;;;0.70;99.90;1.30;99697.00;;;;347282;28;82435;-86
2023/01/27 00:38:22;;;;;;;;;;;0.60;99.90;1.30;99703.00;;;;345505;28;88660;-86
2023/01/27 00:38:40;;;;;;;;;;;0.70;99.90;1.30;99698.00;;;;345905;28;82477;-85
2023/01/27 00:38:52;;;;;;;;;;;0.60;99.90;1.20;99701.00;;;;346906;28;90568;-85
2023/01/27 00:39:05;;;;;;;;;;;0.60;99.90;1.30;99698.00;;;;347267;28;83469;-85
2023/01/27 00:39:16;;;;;;;;;;;0.60;99.90;1.30;99700.00;;;;342818;28;89177;-85
2023/01/27 00:39:28;;;;;;;;;;;0.60;99.90;1.30;99703.00;;;;344621;28;83417;-85
2023/01/27 00:39:40;;;;;;;;;;;0.60;99.90;1.30;99700.00;;;;345453;28;91276;-85
2023/01/27 00:39:52;;;;;;;;;;;0.60;99.90;1.30;99696.00;;;;347272;28;84090;-85
2023/01/27 00:40:04;;;;;;;;;;;0.60;99.90;1.30;99705.00;;;;344161;28;88951;-85
2023/01/27 00:40:16;;;;;;;;;;;0.60;99.90;1.20;99694.00;;;;344489;28;83423;-85
2023/01/27 00:40:27;;;;;;;;;;;0.60;99.90;1.20;99699.00;;;;345201;28;92250;-85
2023/01/27 00:40:39;;;;;;;;;;;0.60;99.90;1.30;99699.00;;;;347285;28;83324;-85
2023/01/27 00:41:22;;;;;;;;;;;0.60;99.90;1.30;99714.00;;;;343165;28;83417;-85
2023/01/27 00:41:34;;;;;;;;;;;0.60;99.90;1.30;99706.00;;;;342844;28;88952;-85
2023/01/27 00:41:45;;;;;;;;;;;0.60;99.90;1.30;99708.00;;;;343097;28;83768;-85
2023/01/27 00:41:57;;;;;;;;;;;0.60;99.90;1.40;99702.00;;;;345652;28;88103;-86
2023/01/27 00:42:09;;;;;;;;;;;0.60;99.90;1.40;99702.00;;;;345952;28;83365;-86
2023/01/27 00:42:21;;;;;;;;;;;0.60;99.90;1.40;99703.00;;;;345477;28;87739;-85
2023/01/27 00:42:32;;;;;;;;;;;0.60;99.90;1.40;99708.00;;;;341860;28;83425;-86
2023/01/27 00:42:44;;;;;;;;;;;0.70;99.90;1.30;99704.00;;;;345459;28;91663;-86
2023/01/27 00:42:56;;;;;;;;;;;0.60;99.90;1.30;99700.00;;;;344484;28;83182;-86
2023/01/27 00:43:07;;;;;;;;;;;0.60;99.90;1.30;99692.00;;;;343979;28;91792;-85
2023/01/27 00:43:19;;;;;;;;;;;0.60;99.90;1.30;99708.00;;;;343157;28;82767;-85
2023/01/27 00:43:31;;;;;;;;;;;0.60;99.90;1.30;99693.00;;;;342924;28;88029;-85
2023/01/27 00:43:43;;;;;;;;;;;0.60;99.90;1.30;99710.00;;;;344421;28;83467;-85
2023/01/27 00:43:54;;;;;;;;;;;0.60;99.90;1.30;99700.00;;;;344052;28;91931;-85
2023/01/27 00:44:11;;;;;;;;;;;0.60;99.90;1.30;99701.00;;;;345570;28;83318;-85
2023/01/27 00:44:23;;;;;;;;;;;0.70;99.90;1.30;99696.00;;;;341393;28;88940;-86
2023/01/27 00:44:35;;;;;;;;;;;0.70;99.90;1.30;99705.00;;;;344558;28;83351;-85
2023/01/27 00:45:47;;;;;;;;;;;0.70;99.90;1.30;99700.00;;;;342615;28;91776;-86
2023/01/27 00:46:00;;;;;;;;;;;0.70;99.90;1.30;99701.00;;;;344683;28;83286;-86
2023/01/27 00:46:12;;;;;;;;;;;0.70;99.90;1.30;99700.00;;;;342796;28;89463;-85
2023/01/27 00:46:24;;;;;;;;;;;0.60;99.90;1.30;99704.00;;;;344185;28;83440;-85
2023/01/27 00:46:35;;;;;;;;;;;0.70;99.90;1.40;99704.00;;;;345441;28;90935;-86
2023/01/27 00:46:47;;;;;;;;;;;0.70;99.90;1.40;99704.00;;;;344476;28;83492;-85
2023/01/27 00:46:59;;;;;;;;;;;0.70;99.90;1.40;99705.00;;;;343968;28;91187;-86
2023/01/27 00:47:10;;;;;;;;;;;0.70;99.90;1.40;99702.00;;;;344652;28;83165;-86
2023/01/27 00:47:22;;;;;;;;;;;0.70;99.90;1.40;99698.00;;;;345426;28;91946;-86
2023/01/27 00:47:34;;;;;;;;;;;0.70;99.90;1.40;99687.00;;;;345995;28;83298;-86
2023/01/27 00:47:48;;;;;;;;;;;0.70;99.90;1.30;99702.00;;;;344022;28;93080;-86
2023/01/27 00:48:00;;;;;;;;;;;0.70;99.90;1.40;99703.00;;;;341786;28;83528;-86
2023/01/27 00:48:12;;;;;;;;;;;0.70;99.90;1.40;99697.00;;;;342785;28;91591;-85
2023/01/27 00:48:24;;;;;;;;;;;0.70;99.90;1.40;99699.00;;;;343140;28;83362;-86
2023/01/27 00:48:35;;;;;;;;;;;0.60;99.90;1.40;99690.00;;;;341347;28;89459;-85
2023/01/27 00:48:47;;;;;;;;;;;0.70;99.90;1.30;99703.00;;;;344510;28;83500;-85
2023/01/27 00:48:59;;;;;;;;;;;0.70;99.90;1.40;99699.00;;;;345432;28;91390;-86
2023/01/27 00:49:12;;;;;;;;;;;0.70;99.90;1.40;99700.00;;;;346006;28;83329;-85
2023/01/27 00:49:24;;;;;;;;;;;0.70;99.90;1.40;99689.00;;;;346880;28;88170;-85
2023/01/27 00:49:35;;;;;;;;;;;0.70;99.90;1.40;99702.00;;;;343223;28;83496;-85
2023/01/27 00:49:47;;;;;;;;;;;0.70;99.90;1.40;99697.00;;;;346758;28;90514;-85
2023/01/27 00:49:59;;;;;;;;;;;0.70;99.90;1.40;99702.00;;;;347069;28;83456;-85
2023/01/27 00:50:11;;;;;;;;;;;0.70;99.90;1.30;99688.00;;;;341447;28;89451;-85
2023/01/27 00:50:23;;;;;;;;;;;0.70;99.90;1.30;99705.00;;;;344496;28;83671;-86
2023/01/27 00:50:35;;;;;;;;;;;0.70;99.90;1.40;99691.00;;;;344161;28;91487;-86
2023/01/27 00:50:46;;;;;;;;;;;0.70;99.90;1.30;99700.00;;;;344474;28;83657;-85
2023/01/27 00:50:58;;;;;;;;;;;0.70;99.90;1.30;99695.00;;;;344141;28;88206;-85
2023/01/27 00:51:10;;;;;;;;;;;0.70;99.90;1.20;99695.00;;;;341801;28;83630;-86
2023/01/27 00:51:22;;;;;;;;;;;0.60;99.90;1.30;99703.00;;;;341405;28;89976;-85
2023/01/27 00:51:35;;;;;;;;;;;0.70;99.90;1.30;99699.00;;;;344512;28;83430;-85
2023/01/27 00:51:47;;;;;;;;;;;0.60;99.90;1.30;99704.00;;;;342583;28;92334;-85
2023/01/27 00:51:58;;;;;;;;;;;0.60;99.90;1.30;99698.00;;;;344237;28;83412;-85
2023/01/27 00:52:10;;;;;;;;;;;0.60;99.90;1.30;99695.00;;;;342680;28;89212;-85
2023/01/27 00:52:22;;;;;;;;;;;0.60;99.90;1.30;99703.00;;;;344503;28;82525;-85
2023/01/27 00:52:33;;;;;;;;;;;0.60;99.90;1.30;99707.00;;;;345461;28;92517;-85
2023/01/27 00:52:45;;;;;;;;;;;0.60;99.90;1.30;99695.00;;;;345827;28;83562;-85
2023/01/27 00:53:01;;;;;;;;;;;0.60;99.90;1.20;99700.00;;;;344026;28;92450;-85
2023/01/27 00:53:12;;;;;;;;;;;0.60;99.90;1.30;99697.00;;;;345927;28;83454;-85
2023/01/27 00:53:24;;;;;;;;;;;0.60;99.90;1.30;99699.00;;;;344110;28;90401;-85
2023/01/27 00:53:36;;;;;;;;;;;0.60;99.90;1.30;99686.00;;;;345949;28;82394;-85
2023/01/27 00:53:48;;;;;;;;;;;0.60;99.90;1.20;99697.00;;;;345325;28;93123;-85
2023/01/27 00:54:01;;;;;;;;;;;0.60;99.90;1.30;99693.00;;;;344576;28;83315;-85
2023/01/27 00:54:13;;;;;;;;;;;0.60;99.90;1.20;99697.00;;;;344168;28;89464;-85
2023/01/27 00:54:25;;;;;;;;;;;0.60;99.90;1.10;99692.00;;;;343101;28;83608;-85
2023/01/27 00:54:37;;;;;;;;;;;0.60;99.90;1.10;99687.00;;;;344197;28;88670;-85
2023/01/27 00:54:48;;;;;;;;;;;0.60;99.90;1.10;99699.00;;;;347342;28;83450;-85
2023/01/27 00:55:00;;;;;;;;;;;0.60;99.90;1.20;99689.00;;;;344083;28;88994;-85
2023/01/27 00:55:14;;;;;;;;;;;0.50;99.90;1.10;99698.00;;;;343101;28;83376;-85
2023/01/27 00:55:26;;;;;;;;;;;0.50;99.90;1.00;99700.00;;;;344120;28;89295;-85
2023/01/27 00:55:38;;;;;;;;;;;0.50;99.90;1.10;99700.00;;;;344452;28;83455;-85
2023/01/27 00:55:49;;;;;;;;;;;0.50;99.90;1.10;99697.00;;;;342406;28;91638;-85
2023/01/27 00:56:01;;;;;;;;;;;0.50;99.90;1.10;99692.00;;;;343002;28;83412;-85
2023/01/27 00:56:13;;;;;;;;;;;0.50;99.90;1.10;99704.00;;;;342752;28;90602;-85
2023/01/27 00:56:25;;;;;;;;;;;0.40;99.90;1.10;99688.00;;;;345743;28;83587;-85
2023/01/27 00:56:37;;;;;;;;;;;0.40;99.90;1.10;99690.00;;;;344148;28;89498;-85
2023/01/27 00:56:49;;;;;;;;;;;0.50;99.90;1.00;99692.00;;;;343176;28;83347;-85
2023/01/27 00:57:01;;;;;;;;;;;0.40;99.90;1.00;99689.00;;;;341394;28;89471;-85
2023/01/27 00:57:12;;;;;;;;;;;0.40;99.90;1.10;99693.00;;;;343260;28;82472;-85
2023/01/27 00:57:24;;;;;;;;;;;0.40;99.90;1.10;99692.00;;;;344130;28;89859;-85
2023/01/27 00:57:36;;;;;;;;;;;0.40;99.90;1.10;99695.00;;;;343281;28;83200;-85
2023/01/27 00:57:48;;;;;;;;;;;0.40;99.90;1.20;99691.00;;;;342608;28;91961;-86
2023/01/27 00:58:00;;;;;;;;;;;0.50;99.90;1.10;99698.00;;;;343237;28;83327;-86
2023/01/27 00:58:12;;;;;;;;;;;0.40;99.90;1.20;99694.00;;;;344105;28;91679;-85
2023/01/27 00:58:24;;;;;;;;;;;0.40;99.90;1.20;99698.00;;;;344529;28;82407;-85
2023/01/27 00:58:36;;;;;;;;;;;0.40;99.90;1.20;99686.00;;;;342733;28;91707;-85
2023/01/27 00:58:48;;;;;;;;;;;0.50;99.90;1.20;99692.00;;;;343029;28;83344;-85
2023/01/27 00:59:00;;;;;;;;;;;0.40;99.90;1.20;99694.00;;;;342596;28;88534;-85
2023/01/27 00:59:12;;;;;;;;;;;0.40;99.90;1.20;99693.00;;;;343289;28;82418;-85
2023/01/27 00:59:23;;;;;;;;;;;0.40;99.90;1.20;99686.00;;;;344041;28;91096;-85
2023/01/27 00:59:35;;;;;;;;;;;0.40;99.90;1.20;99697.00;;;;345990;28;83307;-85
2023/01/27 00:59:47;;;;;;;;;;;0.50;99.90;1.20;99696.00;;;;344030;28;92808;-85
2023/01/27 00:59:58;;;;;;;;;;;0.50;99.90;1.20;99693.00;;;;344536;28;82452;-84
2023/01/27 01:00:11;;;;;;;;;;;0.40;99.90;1.20;99692.00;;;;344081;28;92373;-85
2023/01/27 01:00:23;;;;;;;;;;;0.50;99.90;1.20;99692.00;;;;344420;28;83307;-86
2023/01/27 01:00:35;;;;;;;;;;;0.50;99.90;1.20;99694.00;;;;342896;28;89071;-85
2023/01/27 01:00:47;;;;;;;;;;;0.50;99.90;1.20;99688.00;;;;347274;28;83296;-85
2023/01/27 01:01:00;;;;;;;;;;;0.50;99.90;1.20;99693.00;;;;345471;28;88541;-85
2023/01/27 01:01:14;;;;;;;;;;;0.50;99.90;1.20;99693.00;;;;344502;28;83446;-85
2023/01/27 01:01:26;;;;;;;;;;;0.50;99.90;1.20;99688.00;;;;342778;28;88797;-85
2023/01/27 01:01:38;;;;;;;;;;;0.50;99.90;1.20;99687.00;;;;343191;28;83783;-85
2023/01/27 01:01:50;;;;;;;;;;;0.50;99.90;1.10;99687.00;;;;344001;28;92637;-85
2023/01/27 01:02:02;;;;;;;;;;;0.50;99.90;1.20;99687.00;;;;343423;28;82429;-85
2023/01/27 01:02:13;;;;;;;;;;;0.50;99.90;1.20;99693.00;;;;344034;28;92115;-85
2023/01/27 01:02:25;;;;;;;;;;;0.50;99.90;1.10;99688.00;;;;342973;28;82469;-85
2023/01/27 01:02:37;;;;;;;;;;;0.50;99.90;1.20;99696.00;;;;341502;28;91243;-85
2023/01/27 01:02:49;;;;;;;;;;;0.50;99.90;1.20;99690.00;;;;344660;28;83345;-85
2023/01/27 01:03:01;;;;;;;;;;;0.50;99.90;1.20;99692.00;;;;344053;28;92439;-85
2023/01/27 01:03:12;;;;;;;;;;;0.50;99.90;1.20;99696.00;;;;343251;28;83276;-86
2023/01/27 01:03:25;;;;;;;;;;;0.50;99.90;1.20;99692.00;;;;344263;28;89188;-85
2023/01/27 01:03:37;;;;;;;;;;;0.50;99.90;1.20;99689.00;;;;343221;28;83310;-85
2023/01/27 01:03:49;;;;;;;;;;;0.50;99.90;1.20;99687.00;;;;344133;28;90646;-85
2023/01/27 01:04:01;;;;;;;;;;;0.50;99.90;1.20;99684.00;;;;343112;28;83521;-85
2023/01/27 01:04:12;;;;;;;;;;;0.50;99.90;1.20;99689.00;;;;342785;28;90827;-85
2023/01/27 01:04:24;;;;;;;;;;;0.50;99.90;1.20;99694.00;;;;344498;28;83518;-85
2023/01/27 01:04:36;;;;;;;;;;;0.50;99.90;1.20;99692.00;;;;344164;28;92091;-86
2023/01/27 01:04:48;;;;;;;;;;;0.50;99.90;1.20;99691.00;;;;343232;28;83338;-85
2023/01/27 01:04:59;;;;;;;;;;;0.50;99.90;1.10;99689.00;;;;341346;28;90881;-85
2023/01/27 01:05:11;;;;;;;;;;;0.50;99.90;1.10;99687.00;;;;341779;28;83465;-85
2023/01/27 01:05:23;;;;;;;;;;;0.50;99.90;1.20;99690.00;;;;342910;28;89013;-85
2023/01/27 01:05:35;;;;;;;;;;;0.50;99.90;1.20;99697.00;;;;343262;28;83290;-85
2023/01/27 01:05:47;;;;;;;;;;;0.50;99.90;1.20;99697.00;;;;342737;28;90035;-85
2023/01/27 01:06:03;;;;;;;;;;;0.50;99.90;1.20;99691.00;;;;345630;28;83305;-85
2023/01/27 01:06:15;;;;;;;;;;;0.50;99.90;1.20;99691.00;;;;345517;28;90648;-86
2023/01/27 01:06:27;;;;;;;;;;;0.50;99.90;1.20;99684.00;;;;344594;28;83339;-84
2023/01/27 01:06:39;;;;;;;;;;;0.50;99.90;1.20;99689.00;;;;344177;28;91365;-85
2023/01/27 01:06:50;;;;;;;;;;;0.50;99.90;1.20;99688.00;;;;342015;28;83202;-85
2023/01/27 01:07:02;;;;;;;;;;;0.50;99.90;1.20;99687.00;;;;342700;28;88011;-85
2023/01/27 01:07:14;;;;;;;;;;;0.50;99.90;1.20;99685.00;;;;343314;28;82434;-85
2023/01/27 01:07:26;;;;;;;;;;;0.50;99.90;1.30;99691.00;;;;344016;28;92579;-85
2023/01/27 01:07:37;;;;;;;;;;;0.50;99.90;1.20;99684.00;;;;341881;28;83376;-85
2023/01/27 01:07:49;;;;;;;;;;;0.50;99.90;1.30;99685.00;;;;341331;28;92731;-85
2023/01/27 01:08:01;;;;;;;;;;;0.50;99.90;1.30;99685.00;;;;344560;28;83556;-85
2023/01/27 01:08:13;;;;;;;;;;;0.60;99.90;1.30;99678.00;;;;344149;28;91961;-85
2023/01/27 01:08:25;;;;;;;;;;;0.50;99.90;1.20;99679.00;;;;344491;28;82591;-86
2023/01/27 01:08:36;;;;;;;;;;;0.60;99.90;1.30;99676.00;;;;345567;28;89131;-85
2023/01/27 01:08:50;;;;;;;;;;;0.50;99.90;1.30;99684.00;;;;344611;28;83416;-86
2023/01/27 01:09:01;;;;;;;;;;;0.50;99.90;1.30;99693.00;;;;344052;28;89232;-85
2023/01/27 01:09:13;;;;;;;;;;;0.50;99.90;1.20;99681.00;;;;343289;28;82595;-85
2023/01/27 01:09:25;;;;;;;;;;;0.60;99.90;1.30;99693.00;;;;342522;28;88727;-85
2023/01/27 01:09:37;;;;;;;;;;;0.50;99.90;1.30;99686.00;;;;341904;28;83339;-85
2023/01/27 01:09:48;;;;;;;;;;;0.60;99.90;1.30;99690.00;;;;342755;28;90682;-85
2023/01/27 01:10:00;;;;;;;;;;;0.60;99.90;1.30;99689.00;;;;343288;28;83390;-85
2023/01/27 01:10:12;;;;;;;;;;;0.60;99.90;1.30;99685.00;;;;342773;28;90717;-85
2023/01/27 01:10:24;;;;;;;;;;;0.60;99.90;1.20;99684.00;;;;343256;28;83353;-85
2023/01/27 01:10:37;;;;;;;;;;;0.60;99.90;1.20;99686.00;;;;340161;28;89137;-85
2023/01/27 01:10:49;;;;;;;;;;;0.60;99.90;1.30;99688.00;;;;343205;28;83417;-85
2023/01/27 01:11:01;;;;;;;;;;;0.60;99.90;1.20;99688.00;;;;342793;28;88092;-85
2023/01/27 01:11:14;;;;;;;;;;;0.60;99.90;1.30;99678.00;;;;343213;28;82544;-85
2023/01/27 01:11:26;;;;;;;;;;;0.60;99.90;1.30;99687.00;;;;342736;28;90812;-85
2023/01/27 01:11:38;;;;;;;;;;;0.60;99.90;1.20;99684.00;;;;344590;28;83491;-85
2023/01/27 01:11:49;;;;;;;;;;;0.60;99.90;1.20;99689.00;;;;344112;28;90063;-86
2023/01/27 01:12:01;;;;;;;;;;;0.60;99.90;1.30;99688.00;;;;343254;28;83414;-85
2023/01/27 01:12:13;;;;;;;;;;;0.60;99.90;1.30;99687.00;;;;344160;28;92438;-85